Time;durP1;ratioP1;P1;durP2;ratioP2;P2;SDS_P1;SDS_P2;PMS_P1;PMS_P2;Temp;Humidity;BMP_temperature;BMP_pressure;BME280_temperature;BME280_humidity;BME280_pressure;Samples;Min_cycle;Max_cycle;Signal;HPM_P1;HPM_P2
2023/06/28 00:01:14;;;;;;;;;3.50;2.50;;;;;22.35;45.92;101565.47;5025856;28;45371;-63
2023/06/28 00:03:39;;;;;;;;;2.00;2.00;;;;;22.52;46.79;101601.50;5034892;28;45469;-64
2023/06/28 00:06:05;;;;;;;;;4.25;3.00;;;;;22.48;46.50;101599.97;5056097;28;45899;-63
2023/06/28 00:08:30;;;;;;;;;4.50;2.75;;;;;22.49;46.54;101596.28;5052429;28;45372;-64
2023/06/28 00:10:55;;;;;;;;;3.00;3.00;;;;;22.51;46.23;101600.63;5028803;28;45528;-64
2023/06/28 00:13:21;;;;;;;;;5.25;4.00;;;;;22.39;46.13;101572.44;5053025;28;45534;-64
2023/06/28 00:15:46;;;;;;;;;4.25;4.00;;;;;22.33;46.27;101561.97;5025841;28;45770;-64
2023/06/28 00:18:12;;;;;;;;;2.75;2.75;;;;;22.35;47.00;101564.59;5032897;28;45453;-64
2023/06/28 00:20:38;;;;;;;;;5.00;5.00;;;;;22.45;46.92;101589.31;5026053;28;45327;-63
2023/06/28 00:23:04;;;;;;;;;3.75;3.00;;;;;22.14;46.29;101534.28;5035983;28;45777;-64
2023/06/28 00:25:29;;;;;;;;;5.00;5.00;;;;;22.32;46.87;101570.22;5023737;28;45456;-64
2023/06/28 00:27:55;;;;;;;;;8.00;6.25;;;;;22.33;46.57;101586.44;5028959;28;45470;-64
2023/06/28 00:30:20;;;;;;;;;4.00;4.00;;;;;22.11;46.67;101542.66;5038846;28;45263;-64
2023/06/28 00:32:46;;;;;;;;;3.75;3.75;;;;;22.15;46.57;101552.31;5021618;28;45630;-63
2023/06/28 00:35:11;;;;;;;;;4.50;3.75;;;;;22.20;46.72;101561.03;5037432;28;46867;-64
2023/06/28 00:37:36;;;;;;;;;6.00;4.50;;;;;22.28;46.67;101577.72;5030494;28;45332;-64
2023/06/28 00:40:05;;;;;;;;;4.50;3.50;;;;;22.16;46.87;101552.22;5034305;28;45783;-63
2023/06/28 00:42:31;;;;;;;;;5.00;3.00;;;;;22.29;47.44;101568.59;5031381;28;45491;-64
2023/06/28 00:44:56;;;;;;;;;3.00;3.00;;;;;22.21;46.84;101566.38;5018794;28;47169;-64
2023/06/28 00:47:22;;;;;;;;;4.00;3.00;;;;;22.35;47.00;101576.34;5027574;28;45496;-64
2023/06/28 00:49:50;;;;;;;;;4.50;3.00;;;;;22.37;46.59;101585.28;5052358;28;45526;-64
2023/06/28 00:52:15;;;;;;;;;6.25;4.00;;;;;22.26;46.68;101562.47;5030906;28;45563;-64
2023/06/28 00:54:41;;;;;;;;;3.00;3.00;;;;;22.31;47.17;101574.81;5027142;28;47766;-64
2023/06/28 00:57:08;;;;;;;;;4.00;2.00;;;;;22.09;46.86;101553.63;5020047;28;45454;-64
2023/06/28 00:59:35;;;;;;;;;3.75;3.75;;;;;22.01;47.05;101548.69;5018749;28;45651;-64
2023/06/28 01:02:02;;;;;;;;;2.50;2.50;;;;;22.18;47.31;101577.47;5028959;28;45457;-64
2023/06/28 01:04:27;;;;;;;;;3.25;3.00;;;;;21.95;47.52;101548.25;5033308;28;45414;-64
2023/06/28 01:06:59;;;;;;;;;5.00;4.00;;;;;22.10;47.19;101585.28;5029578;28;45281;-64
2023/06/28 01:09:26;;;;;;;;;2.75;2.50;;;;;22.09;47.71;101578.09;5018185;28;45451;-64
2023/06/28 01:11:54;;;;;;;;;5.50;3.00;;;;;21.83;47.81;101536.34;5019966;28;45331;-64
2023/06/28 01:14:21;;;;;;;;;3.00;3.00;;;;;22.13;47.99;101574.19;5019703;28;45514;-64
2023/06/28 01:16:54;;;;;;;;;4.00;4.00;;;;;22.00;47.66;101548.81;5020744;28;45499;-64
2023/06/28 01:19:23;;;;;;;;;4.00;2.75;;;;;22.09;47.94;101564.50;5034513;28;45532;-63
2023/06/28 01:21:50;;;;;;;;;1.00;1.00;;;;;22.17;47.63;101573.00;5035177;28;45939;-64
2023/06/28 01:24:16;;;;;;;;;2.00;2.00;;;;;22.16;47.58;101565.81;5019604;28;47330;-64
2023/06/28 01:26:42;;;;;;;;;2.25;2.25;;;;;22.08;47.52;101545.56;5019507;28;45435;-64
2023/06/28 01:29:10;;;;;;;;;4.50;3.25;;;;;22.07;47.33;101555.59;5028943;28;45612;-64
2023/06/28 01:31:36;;;;;;;;;3.50;2.50;;;;;21.97;47.45;101543.59;5035072;28;46390;-64
2023/06/28 01:34:02;;;;;;;;;4.00;3.50;;;;;21.93;48.01;101544.78;5019642;28;45455;-64
2023/06/28 01:36:28;;;;;;;;;7.50;6.00;;;;;21.83;47.48;101545.41;5019506;28;45952;-64
2023/06/28 01:38:55;;;;;;;;;6.00;6.00;;;;;21.96;47.58;101578.03;5041505;28;45486;-63
2023/06/28 01:41:21;;;;;;;;;7.75;7.50;;;;;21.81;48.23;101549.19;5051297;28;45512;-64
2023/06/28 01:43:47;;;;;;;;;12.00;8.50;;;;;21.95;48.06;101567.28;5032405;28;45498;-64
2023/06/28 01:46:12;;;;;;;;;8.00;8.00;;;;;21.90;47.76;101562.16;5019414;28;45323;-64
2023/06/28 01:48:38;;;;;;;;;9.75;8.50;;;;;21.90;48.31;101555.84;5026706;28;45292;-64
2023/06/28 01:51:03;;;;;;;;;8.25;7.25;;;;;21.77;48.30;101540.38;5022573;28;45349;-64
2023/06/28 01:53:29;;;;;;;;;11.25;9.00;;;;;21.91;48.06;101558.47;5018437;28;45427;-63
2023/06/28 01:55:54;;;;;;;;;6.75;6.75;;;;;21.88;48.26;101553.22;5032398;28;45251;-64
2023/06/28 01:58:20;;;;;;;;;9.25;8.25;;;;;21.69;47.73;101514.69;5019223;28;45428;-64
2023/06/28 02:00:45;;;;;;;;;12.25;9.75;;;;;21.89;48.03;101549.53;5019130;28;45450;-64
2023/06/28 02:03:10;;;;;;;;;7.25;7.25;;;;;21.78;47.93;101531.22;5030461;28;46752;-64
2023/06/28 02:05:36;;;;;;;;;7.75;7.75;;;;;21.89;48.45;101562.28;5037491;28;45446;-64
2023/06/28 02:08:02;;;;;;;;;7.00;5.25;;;;;21.61;48.46;101504.34;5020782;28;45677;-64
2023/06/28 02:10:27;;;;;;;;;10.00;7.00;;;;;21.91;47.95;101552.16;5018989;28;45398;-63
2023/06/28 02:12:53;;;;;;;;;8.50;8.25;;;;;21.95;48.17;101559.13;5018797;28;45559;-64
2023/06/28 02:15:18;;;;;;;;;10.25;9.00;;;;;21.96;48.03;101560.88;5029269;28;45456;-64
2023/06/28 02:17:44;;;;;;;;;9.00;9.00;;;;;21.87;48.16;101545.16;5030444;28;45417;-63
2023/06/28 02:20:10;;;;;;;;;9.50;8.75;;;;;21.77;48.03;101534.94;5022537;28;45359;-63
2023/06/28 02:22:35;;;;;;;;;13.00;11.50;;;;;21.82;48.22;101542.78;5024472;28;46564;-64
2023/06/28 02:25:00;;;;;;;;;12.50;12.50;;;;;21.89;47.96;101549.53;5033930;28;45435;-64
2023/06/28 02:27:28;;;;;;;;;6.00;5.75;;;;;21.81;47.85;101535.59;5035876;28;46712;-64
2023/06/28 02:29:56;;;;;;;;;10.50;9.25;;;;;21.84;47.73;101535.41;5034212;28;45513;-64
2023/06/28 02:32:21;;;;;;;;;9.25;7.50;;;;;21.82;48.34;101526.47;5030681;28;45839;-64
2023/06/28 02:34:47;;;;;;;;;12.00;12.00;;;;;21.77;47.90;101521.34;5018840;28;45415;-64
2023/06/28 02:37:12;;;;;;;;;13.25;11.75;;;;;21.86;47.95;101536.16;5018565;28;45535;-64
2023/06/28 02:39:38;;;;;;;;;14.00;9.50;;;;;21.85;47.62;101537.13;5018605;28;45472;-63
2023/06/28 02:42:03;;;;;;;;;10.25;10.25;;;;;21.67;47.65;101511.19;5018348;28;45393;-64
2023/06/28 02:44:28;;;;;;;;;11.50;10.50;;;;;21.83;47.84;101545.41;5017398;28;45515;-64
2023/06/28 02:46:54;;;;;;;;;12.25;8.25;;;;;21.87;47.36;101551.50;5017499;28;45485;-63
2023/06/28 02:49:19;;;;;;;;;7.50;7.00;;;;;21.64;47.94;101515.84;5018630;28;45383;-64
2023/06/28 02:51:47;;;;;;;;;8.50;8.00;;;;;21.85;47.48;101550.72;5029664;28;45569;-64
2023/06/28 02:54:12;;;;;;;;;10.00;7.25;;;;;21.71;47.33;101518.19;5045403;28;45403;-64
2023/06/28 02:56:38;;;;;;;;;8.25;8.25;;;;;21.81;47.64;101547.34;5018822;28;45405;-64
2023/06/28 02:59:03;;;;;;;;;7.50;5.25;;;;;21.76;47.87;101532.31;5018369;28;45303;-64
2023/06/28 03:01:29;;;;;;;;;7.25;7.25;;;;;21.63;47.38;101518.69;5016662;28;47230;-64
2023/06/28 03:03:54;;;;;;;;;9.75;7.50;;;;;21.56;47.73;101503.78;5036807;28;45626;-64
2023/06/28 03:06:20;;;;;;;;;7.00;5.25;;;;;21.75;47.79;101531.47;5032720;28;45545;-64
2023/06/28 03:08:45;;;;;;;;;5.75;4.50;;;;;21.72;47.52;101530.75;5029074;28;45513;-64
2023/06/28 03:11:10;;;;;;;;;6.75;5.00;;;;;21.75;47.32;101547.75;5049434;28;46682;-64
2023/06/28 03:13:36;;;;;;;;;5.50;5.25;;;;;21.65;47.50;101520.34;5047701;28;45736;-64
2023/06/28 03:16:01;;;;;;;;;7.75;5.25;;;;;21.60;47.32;101510.72;5039686;28;45383;-64
2023/06/28 03:18:27;;;;;;;;;5.25;5.25;;;;;21.63;47.44;101518.69;5022755;28;45585;-63
2023/06/28 03:20:52;;;;;;;;;5.75;5.75;;;;;21.61;47.63;101512.47;5019746;28;48088;-63
2023/06/28 03:23:18;;;;;;;;;5.75;5.75;;;;;21.69;47.93;101514.69;5032652;28;45594;-64
2023/06/28 03:25:44;;;;;;;;;4.25;4.25;;;;;21.62;47.89;101511.53;5023620;28;45352;-64
2023/06/28 03:28:10;;;;;;;;;6.00;6.00;;;;;21.63;47.69;101513.25;5032665;28;45529;-63
2023/06/28 03:30:35;;;;;;;;;4.00;3.25;;;;;21.73;47.67;101514.38;5036640;28;45429;-64
2023/06/28 03:33:00;;;;;;;;;4.25;4.25;;;;;21.85;47.26;101542.56;5021609;28;45355;-64
2023/06/28 03:35:26;;;;;;;;;5.25;4.00;;;;;21.61;47.81;101504.34;5021524;28;45517;-63
2023/06/28 03:37:52;;;;;;;;;5.75;5.75;;;;;21.65;47.77;101517.63;5019743;28;45502;-64
2023/06/28 03:40:18;;;;;;;;;5.75;5.00;;;;;21.83;48.02;101545.41;5019840;28;47293;-64
2023/06/28 03:42:43;;;;;;;;;4.25;4.25;;;;;21.71;47.70;101529.91;5021474;28;45295;-64
2023/06/28 03:45:09;;;;;;;;;4.00;4.00;;;;;21.63;47.70;101515.97;5022314;28;45453;-64
2023/06/28 03:47:34;;;;;;;;;3.75;3.00;;;;;21.43;47.34;101487.38;5035960;28;45712;-63
2023/06/28 03:50:00;;;;;;;;;3.00;3.00;;;;;21.43;47.22;101492.81;5034358;28;46402;-64
2023/06/28 03:52:25;;;;;;;;;6.50;5.75;;;;;21.48;47.36;101506.13;5022988;28;45455;-64
2023/06/28 03:54:51;;;;;;;;;4.75;4.50;;;;;21.43;47.72;101503.66;5021032;28;45676;-64
2023/06/28 03:57:16;;;;;;;;;4.50;4.00;;;;;21.53;47.62;101522.97;5036345;28;45353;-63
2023/06/28 03:59:41;;;;;;;;;5.50;4.00;;;;;21.56;47.70;101526.38;5020756;28;45937;-63
2023/06/28 04:02:07;;;;;;;;;5.25;5.25;;;;;21.35;47.50;101496.06;5025944;28;45431;-64
2023/06/28 04:04:33;;;;;;;;;5.00;5.00;;;;;21.56;47.87;101533.66;5035609;28;45371;-63
2023/06/28 04:07:01;;;;;;;;;4.00;4.00;;;;;21.58;48.27;101534.41;5031118;28;45462;-64
2023/06/28 04:09:26;;;;;;;;;5.50;4.00;;;;;21.28;48.42;101483.81;5019305;28;47996;-64
2023/06/28 04:11:51;;;;;;;;;6.75;6.50;;;;;21.40;47.90;101512.91;5019847;28;45416;-64
2023/06/28 04:14:17;;;;;;;;;6.25;6.25;;;;;21.55;47.79;101540.94;5020913;28;45264;-64
2023/06/28 04:16:42;;;;;;;;;4.00;4.00;;;;;21.52;48.19;101530.28;5024633;28;45284;-64
2023/06/28 04:19:07;;;;;;;;;7.00;5.00;;;;;21.34;48.51;101494.28;5019220;28;48129;-63
2023/06/28 04:21:33;;;;;;;;;4.00;4.00;;;;;21.36;48.06;101502.34;5022029;28;45491;-64
2023/06/28 04:23:59;;;;;;;;;7.75;7.50;;;;;21.28;48.18;101491.97;5035919;28;45431;-64
2023/06/28 04:26:25;;;;;;;;;7.50;5.25;;;;;21.36;48.57;101502.34;5020045;28;45441;-64
2023/06/28 04:28:50;;;;;;;;;6.25;6.25;;;;;21.53;48.10;101528.41;5037408;28;46153;-64
2023/06/28 04:31:16;;;;;;;;;7.00;6.00;;;;;21.57;48.16;101543.56;5051196;28;45395;-64
2023/06/28 04:33:41;;;;;;;;;7.25;5.75;;;;;21.32;48.72;101496.25;5040079;28;45430;-64
2023/06/28 04:36:06;;;;;;;;;4.25;3.00;;;;;21.48;48.13;101526.00;5020636;28;45445;-64
2023/06/28 04:38:32;;;;;;;;;7.75;5.75;;;;;21.51;48.36;101531.22;5035579;28;47153;-64
2023/06/28 04:40:58;;;;;;;;;3.25;3.00;;;;;21.40;48.66;101518.34;5050375;28;45515;-64
2023/06/28 04:43:23;;;;;;;;;4.75;3.75;;;;;21.44;48.52;101527.16;5040484;28;45312;-64
2023/06/28 04:45:49;;;;;;;;;5.00;5.00;;;;;21.38;48.94;101520.25;5030856;28;45401;-64
2023/06/28 04:48:14;;;;;;;;;5.75;4.75;;;;;21.38;48.15;101517.53;5035423;28;46613;-64
2023/06/28 04:50:40;;;;;;;;;5.00;4.75;;;;;21.38;48.45;101513.97;5019926;28;45443;-64
2023/06/28 04:53:06;;;;;;;;;2.75;2.75;;;;;21.32;48.23;101509.81;5033331;28;45320;-64
2023/06/28 04:55:32;;;;;;;;;3.75;3.00;;;;;21.24;47.85;101494.03;5021088;28;45730;-63
2023/06/28 04:58:02;;;;;;;;;2.25;1.00;;;;;21.45;48.31;101529.78;5021554;28;47990;-64
2023/06/28 05:00:31;;;;;;;;;4.75;3.00;;;;;21.37;48.01;101515.81;5020265;28;45553;-64
2023/06/28 05:03:00;;;;;;;;;4.00;4.00;;;;;21.28;47.39;101501.00;5035484;28;45443;-64
2023/06/28 05:05:31;;;;;;;;;4.25;4.25;;;;;21.37;48.25;101518.53;5037321;28;45348;-63
2023/06/28 05:07:59;;;;;;;;;4.25;4.25;;;;;21.45;47.65;101527.06;5021926;28;45529;-64
2023/06/28 05:10:27;;;;;;;;;3.75;3.75;;;;;21.40;47.53;101525.59;5020044;28;45485;-64
2023/06/28 05:12:52;;;;;;;;;6.00;5.25;;;;;21.42;47.52;101519.09;5020019;28;45398;-63
2023/06/28 05:15:18;;;;;;;;;7.00;5.00;;;;;21.46;47.30;101520.63;5025969;28;45488;-64
2023/06/28 05:17:44;;;;;;;;;6.25;6.25;;;;;21.34;47.55;101497.00;5034313;28;46587;-64
2023/06/28 05:20:10;;;;;;;;;8.00;4.75;;;;;21.28;47.68;101494.69;5034492;28;45463;-63
2023/06/28 05:22:42;;;;;;;;;5.00;4.00;;;;;21.45;47.75;101526.16;5033072;28;45494;-65
2023/06/28 05:25:07;;;;;;;;;5.25;5.00;;;;;21.50;47.97;101524.06;5019720;28;45419;-66
2023/06/28 05:27:33;;;;;;;;;6.00;6.00;;;;;21.35;47.72;101493.34;5025381;28;46576;-66
2023/06/28 05:29:58;;;;;;;;;8.75;5.00;;;;;21.47;48.27;101521.56;5039661;28;45412;-66
2023/06/28 05:32:24;;;;;;;;;5.25;4.75;;;;;21.34;47.15;101496.16;5019178;28;45405;-66
2023/06/28 05:34:51;;;;;;;;;9.00;7.25;;;;;21.33;47.72;101494.41;5037792;28;45519;-66
2023/06/28 05:37:17;;;;;;;;;9.00;6.75;;;;;21.34;47.44;101493.44;5037992;28;47353;-66
2023/06/28 05:39:42;;;;;;;;;4.00;3.00;;;;;21.33;47.44;101492.53;5023882;28;45368;-66
2023/06/28 05:42:07;;;;;;;;;9.75;4.75;;;;;21.34;47.96;101491.59;5034872;28;45382;-66
2023/06/28 05:44:33;;;;;;;;;4.50;4.50;;;;;21.44;48.14;101500.84;5034702;28;45832;-66
2023/06/28 05:46:58;;;;;;;;;5.00;4.50;;;;;21.37;47.97;101482.38;5019569;28;45361;-66
2023/06/28 05:49:23;;;;;;;;;5.00;4.25;;;;;21.53;47.60;101515.69;5019610;28;45411;-66
2023/06/28 05:51:50;;;;;;;;;5.50;5.00;;;;;21.40;48.19;101493.00;5026410;28;45420;-66
2023/06/28 05:54:15;;;;;;;;;6.00;4.00;;;;;21.55;48.58;101524.63;5035868;28;45395;-66
2023/06/28 05:56:40;;;;;;;;;6.75;4.75;;;;;21.52;48.63;101515.78;5031005;28;47002;-66
2023/06/28 05:59:06;;;;;;;;;5.75;5.75;;;;;21.41;48.92;101490.19;5019077;28;45343;-66
2023/06/28 06:01:31;;;;;;;;;4.00;4.00;;;;;21.43;48.82;101493.69;5022419;28;45597;-66
2023/06/28 06:03:56;;;;;;;;;6.75;6.75;;;;;21.62;48.75;101522.38;5031579;28;45536;-66
2023/06/28 06:06:22;;;;;;;;;4.25;4.25;;;;;21.58;48.35;101518.13;5033280;28;48130;-66
2023/06/28 06:08:47;;;;;;;;;4.00;4.00;;;;;21.54;48.45;101516.59;5030060;28;45396;-65
2023/06/28 06:11:13;;;;;;;;;3.50;3.50;;;;;21.45;48.79;101497.19;5020997;28;45593;-66
2023/06/28 06:13:38;;;;;;;;;5.75;4.00;;;;;21.39;49.23;101477.69;5021633;28;45442;-66
2023/06/28 06:16:03;;;;;;;;;2.75;2.75;;;;;21.47;49.25;101483.53;5019495;28;46242;-66
2023/06/28 06:18:29;;;;;;;;;3.25;3.00;;;;;21.62;49.54;101517.81;5024644;28;45769;-67
2023/06/28 06:20:54;;;;;;;;;6.00;3.50;;;;;21.73;49.35;101521.66;5033000;28;45451;-66
2023/06/28 06:23:19;;;;;;;;;3.75;2.25;;;;;21.72;49.87;101511.75;5022779;28;45382;-66
2023/06/28 06:25:45;;;;;;;;;4.50;3.25;;;;;21.76;49.44;101516.03;5020359;28;46120;-66
2023/06/28 06:28:10;;;;;;;;;3.00;3.00;;;;;21.78;49.10;101514.91;5027888;28;45445;-66
2023/06/28 06:30:36;;;;;;;;;3.00;3.00;;;;;21.84;49.26;101527.25;5034247;28;45428;-66
2023/06/28 06:33:01;;;;;;;;;3.75;3.75;;;;;21.82;49.91;101515.63;5017178;28;45788;-66
2023/06/28 06:35:27;;;;;;;;;4.00;4.00;;;;;21.83;49.56;101518.22;5027497;28;47805;-66
2023/06/28 06:37:53;;;;;;;;;4.50;3.50;;;;;21.82;49.77;101511.03;5027326;28;45558;-66
2023/06/28 06:40:19;;;;;;;;;3.25;3.00;;;;;21.86;49.85;101514.41;5021929;28;45453;-66
2023/06/28 06:42:45;;;;;;;;;4.25;4.00;;;;;21.92;49.57;101518.56;5031178;28;45256;-66
2023/06/28 06:45:16;;;;;;;;;3.00;3.00;;;;;21.84;49.70;101511.78;5038275;28;47415;-65
2023/06/28 06:47:43;;;;;;;;;4.50;3.25;;;;;21.96;49.63;101525.53;5039563;28;45307;-65
2023/06/28 06:50:09;;;;;;;;;3.75;3.75;;;;;22.01;49.67;101531.53;5024092;28;45574;-66
2023/06/28 06:52:34;;;;;;;;;4.00;4.00;;;;;21.88;50.12;101508.88;5040184;28;45379;-66
2023/06/28 06:55:00;;;;;;;;;5.00;5.00;;;;;22.01;49.54;101531.53;5024072;28;46879;-65
2023/06/28 06:57:25;;;;;;;;;4.50;4.50;;;;;22.00;49.99;101535.22;5022402;28;45335;-66
2023/06/28 06:59:50;;;;;;;;;7.25;4.75;;;;;21.93;50.29;101523.03;5030413;28;45443;-66
2023/06/28 07:02:16;;;;;;;;;3.25;3.25;;;;;21.94;49.90;101525.63;5025134;28;45439;-66
2023/06/28 07:04:42;;;;;;;;;5.50;4.25;;;;;22.03;50.05;101537.72;5038738;28;47463;-66
2023/06/28 07:07:07;;;;;;;;;3.75;3.75;;;;;21.89;50.03;101514.22;5021221;28;45715;-66
2023/06/28 07:09:33;;;;;;;;;5.00;4.00;;;;;21.87;50.21;101508.00;5026240;28;45509;-66
2023/06/28 07:11:58;;;;;;;;;6.00;4.75;;;;;21.95;49.55;101516.53;5024400;28;45521;-67
2023/06/28 07:14:23;;;;;;;;;6.75;4.00;;;;;22.07;49.91;101530.22;5025053;28;46244;-67
2023/06/28 07:16:48;;;;;;;;;5.75;4.50;;;;;21.92;50.17;101496.81;5036208;28;45487;-67
2023/06/28 07:19:14;;;;;;;;;6.00;4.75;;;;;22.11;49.56;101538.06;5031397;28;45527;-67
2023/06/28 07:21:39;;;;;;;;;6.00;5.00;;;;;22.13;49.66;101530.69;5034206;28;45374;-67
2023/06/28 07:24:06;;;;;;;;;6.00;6.00;;;;;21.88;49.78;101490.72;5035799;28;47977;-67
2023/06/28 07:26:31;;;;;;;;;5.25;5.25;;;;;22.10;49.81;101524.59;5026310;28;45466;-67
2023/06/28 07:28:58;;;;;;;;;7.00;6.00;;;;;22.02;49.79;101503.38;5036128;28;45402;-67
2023/06/28 07:31:24;;;;;;;;;5.00;4.25;;;;;22.05;49.87;101515.88;5048249;28;45318;-67
2023/06/28 07:33:49;;;;;;;;;5.50;4.00;;;;;22.06;50.00;101525.78;5036843;28;45416;-67
2023/06/28 07:36:14;;;;;;;;;7.50;5.25;;;;;22.00;49.89;101532.50;5027696;28;47953;-67
2023/06/28 07:38:39;;;;;;;;;7.00;5.00;;;;;21.87;50.37;101512.56;5036149;28;45359;-67
2023/06/28 07:41:05;;;;;;;;;4.00;4.00;;;;;22.06;50.27;101545.69;5026167;28;45410;-67
2023/06/28 07:43:30;;;;;;;;;3.50;3.50;;;;;22.14;51.11;101551.47;5028346;28;46107;-67
2023/06/28 07:45:59;;;;;;;;;4.75;4.25;;;;;22.09;50.50;101534.59;5032666;28;45344;-66
2023/06/28 07:48:25;;;;;;;;;5.25;5.25;;;;;22.25;50.76;101541.69;5036634;28;45463;-66
2023/06/28 07:50:50;;;;;;;;;5.00;5.00;;;;;22.31;50.84;101536.72;5040413;28;45465;-66
2023/06/28 07:53:15;;;;;;;;;4.75;4.00;;;;;22.37;49.97;101535.47;5028779;28;50292;-69
2023/06/28 07:55:41;;;;;;;;;8.50;6.00;;;;;22.44;50.76;101531.31;5027290;28;46576;-66
2023/06/28 07:58:06;;;;;;;;;7.50;6.50;;;;;22.50;50.01;101530.00;5022707;28;45331;-65
2023/06/28 08:00:31;;;;;;;;;6.75;4.50;;;;;22.54;50.65;101528.81;5033363;28;54614;-68
2023/06/28 08:02:58;;;;;;;;;3.75;3.75;;;;;22.51;50.22;101513.56;5036510;28;47060;-67
2023/06/28 08:05:24;;;;;;;;;5.00;5.00;;;;;22.58;50.07;101511.28;5031573;28;45875;-67
2023/06/28 08:07:49;;;;;;;;;5.00;5.00;;;;;22.59;50.15;101515.75;5028054;28;45420;-68
2023/06/28 08:10:15;;;;;;;;;5.50;5.50;;;;;22.65;50.08;101515.31;5033423;28;45632;-68
2023/06/28 08:12:44;;;;;;;;;5.00;5.00;;;;;22.75;50.32;101521.84;5034814;28;48256;-67
2023/06/28 08:15:09;;;;;;;;;6.50;5.50;;;;;22.76;49.73;101514.56;5023445;28;45788;-68
2023/06/28 08:17:35;;;;;;;;;6.75;6.25;;;;;22.86;50.01;101525.66;5031891;28;45512;-68
2023/06/28 08:20:00;;;;;;;;;4.75;4.75;;;;;22.89;50.36;101523.59;5038057;28;45439;-68
2023/06/28 08:22:25;;;;;;;;;4.75;4.75;;;;;22.75;49.83;101491.91;5031578;28;47048;-68
2023/06/28 08:24:51;;;;;;;;;7.75;5.00;;;;;22.73;49.62;101485.69;5019387;28;45641;-68
2023/06/28 08:27:16;;;;;;;;;8.00;7.00;;;;;22.79;49.44;101492.56;5023019;28;45450;-70
2023/06/28 08:29:41;;;;;;;;;7.25;5.50;;;;;22.96;49.83;101510.41;5038765;28;45578;-68
2023/06/28 08:32:07;;;;;;;;;4.75;4.75;;;;;23.14;49.49;101521.84;5030749;28;46021;-68
2023/06/28 08:34:32;;;;;;;;;6.00;5.00;;;;;23.02;49.36;101490.91;5020489;28;45693;-67
2023/06/28 08:36:58;;;;;;;;;5.50;5.50;;;;;23.11;49.40;101495.69;5037752;28;45500;-68
2023/06/28 08:39:24;;;;;;;;;6.00;6.00;;;;;23.09;49.25;101483.19;5037935;28;45306;-68
2023/06/28 08:41:50;;;;;;;;;6.00;5.00;;;;;23.17;49.09;101482.59;5020661;28;45573;-68
2023/06/28 08:44:20;;;;;;;;;5.00;5.00;;;;;23.30;49.12;101500.66;5020201;28;45376;-67
2023/06/28 08:46:48;;;;;;;;;6.00;4.00;;;;;23.36;48.97;101498.47;5033576;28;45374;-68
2023/06/28 08:49:15;;;;;;;;;5.50;5.50;;;;;23.39;48.75;101503.66;5026681;28;45393;-68
2023/06/28 08:51:41;;;;;;;;;8.75;8.75;;;;;23.41;49.02;101499.84;5028283;28;47478;-67
2023/06/28 08:54:09;;;;;;;;;6.50;6.50;;;;;23.47;48.38;101504.84;5034818;28;45966;-67
2023/06/28 08:56:35;;;;;;;;;6.00;5.50;;;;;23.46;49.07;101504.97;5021378;28;45571;-66
2023/06/28 08:59:02;;;;;;;;;6.75;5.00;;;;;23.49;49.01;101504.72;5033087;28;45709;-66
2023/06/28 09:01:32;;;;;;;;;5.75;5.75;;;;;23.41;48.63;101486.22;5031221;28;48265;-66
2023/06/28 09:03:59;;;;;;;;;7.25;6.00;;;;;23.39;49.28;101473.69;5029481;28;45529;-66
2023/06/28 09:06:29;;;;;;;;;7.00;7.00;;;;;23.57;49.11;101496.84;5036475;28;45461;-66
2023/06/28 09:08:57;;;;;;;;;6.25;6.00;;;;;23.50;49.54;101484.66;5028817;28;45472;-66
2023/06/28 09:11:26;;;;;;;;;6.75;6.75;;;;;23.40;48.92;101456.38;5020965;28;45523;-68
2023/06/28 09:13:57;;;;;;;;;8.00;6.50;;;;;23.60;48.30;101477.53;5023168;28;45503;-68
2023/06/28 09:16:23;;;;;;;;;7.50;6.00;;;;;23.48;48.18;101459.38;5028847;28;45423;-68
2023/06/28 09:18:56;;;;;;;;;8.00;8.00;;;;;23.76;48.75;101501.78;5024564;28;45527;-68
2023/06/28 09:21:28;;;;;;;;;6.00;5.50;;;;;23.74;48.44;101489.22;5030326;28;48265;-66
2023/06/28 09:23:54;;;;;;;;;7.25;7.25;;;;;23.86;48.31;101493.78;5024146;28;45480;-68
2023/06/28 09:26:31;;;;;;;;;10.00;7.50;;;;;23.85;48.02;101500.22;5030234;28;45644;-68
2023/06/28 09:29:07;;;;;;;;;10.50;9.00;;;;;23.91;48.75;101510.66;5028971;28;45994;-68
2023/06/28 09:31:38;;;;;;;;;7.50;7.25;;;;;23.92;48.23;101498.75;5032480;28;46567;-68
2023/06/28 09:34:03;;;;;;;;;8.75;7.00;;;;;23.82;48.44;101468.63;5033293;28;45387;-68
2023/06/28 09:36:29;;;;;;;;;7.25;6.50;;;;;23.89;48.11;101477.19;5033039;28;45774;-68
2023/06/28 09:38:56;;;;;;;;;10.75;9.00;;;;;23.94;48.08;101469.53;5025291;28;45505;-68
2023/06/28 09:41:21;;;;;;;;;7.50;7.50;;;;;24.07;48.37;101499.44;5033120;28;48247;-68
2023/06/28 09:43:54;;;;;;;;;6.75;6.00;;;;;24.10;48.96;101488.28;5017933;28;45685;-68
2023/06/28 09:46:22;;;;;;;;;8.25;7.25;;;;;24.07;48.07;101474.88;5033985;28;45535;-68
2023/06/28 09:48:49;;;;;;;;;9.75;7.25;;;;;24.10;47.98;101471.06;5025843;28;45390;-69
2023/06/28 09:51:18;;;;;;;;;10.75;9.25;;;;;24.14;48.12;101478.00;5026663;28;46923;-68
2023/06/28 09:53:49;;;;;;;;;9.75;8.00;;;;;24.18;47.90;101476.78;5020334;28;45523;-68
2023/06/28 09:56:15;;;;;;;;;10.75;10.25;;;;;24.04;47.81;101448.75;5023898;28;45434;-68
2023/06/28 09:58:41;;;;;;;;;10.25;9.00;;;;;24.26;47.42;101479.78;5035287;28;45612;-68
2023/06/28 10:01:07;;;;;;;;;8.50;8.50;;;;;24.11;47.15;101448.25;5032269;28;48348;-68
2023/06/28 10:03:38;;;;;;;;;6.75;6.75;;;;;24.14;47.87;101459.78;5035737;28;45376;-68
2023/06/28 10:06:08;;;;;;;;;10.00;9.25;;;;;24.25;48.08;101458.06;5025851;28;45465;-68
2023/06/28 10:08:37;;;;;;;;;11.50;10.25;;;;;24.14;47.34;101429.78;5034076;28;45673;-68
2023/06/28 10:11:10;;;;;;;;;5.25;5.25;;;;;24.16;46.80;101424.22;5030461;28;45405;-66
2023/06/28 10:13:37;;;;;;;;;15.00;12.00;;;;;24.24;47.60;101432.66;5028834;28;45415;-66
2023/06/28 10:16:10;;;;;;;;;15.00;13.75;;;;;24.30;46.64;101440.34;5030823;28;45888;-66
2023/06/28 10:18:39;;;;;;;;;15.75;15.25;;;;;24.38;47.03;101442.47;5035142;28;45696;-66
2023/06/28 10:21:07;;;;;;;;;12.50;10.75;;;;;24.33;46.12;101434.66;5032653;28;47109;-66
2023/06/28 10:23:40;;;;;;;;;13.00;11.50;;;;;24.34;46.26;101428.22;5034005;28;45498;-66
2023/06/28 10:26:05;;;;;;;;;12.75;10.00;;;;;24.28;46.59;101406.00;5033324;28;45561;-66
2023/06/28 10:28:34;;;;;;;;;13.75;11.50;;;;;24.53;46.38;101452.16;5030162;28;45565;-66
2023/06/28 10:31:02;;;;;;;;;12.75;11.50;;;;;24.54;46.51;101453.00;5029504;28;47058;-66
2023/06/28 10:33:31;;;;;;;;;12.75;12.25;;;;;24.34;46.34;101411.84;5037006;28;45460;-65
2023/06/28 10:36:00;;;;;;;;;12.00;12.00;;;;;24.52;46.89;101433.16;5028224;28;45474;-65
2023/06/28 10:38:32;;;;;;;;;13.25;13.25;;;;;24.53;46.51;101435.78;5037701;28;45512;-66
2023/06/28 10:41:01;;;;;;;;;12.25;11.75;;;;;24.61;46.52;101446.13;5018905;28;45434;-65
2023/06/28 10:43:27;;;;;;;;;12.75;12.00;;;;;24.37;46.20;101408.88;5036820;28;45580;-66
2023/06/28 10:45:55;;;;;;;;;11.25;9.25;;;;;24.59;46.91;101428.97;5031880;28;45439;-66
2023/06/28 10:48:22;;;;;;;;;14.00;13.00;;;;;24.54;46.33;101410.22;5035606;28;45620;-66
2023/06/28 10:50:49;;;;;;;;;9.50;9.25;;;;;24.41;46.11;101388.53;5021219;28;45272;-66
2023/06/28 10:53:25;;;;;;;;;13.25;12.00;;;;;24.71;47.08;101429.88;5019475;28;45374;-66
2023/06/28 10:56:11;;;;;;;;;11.75;11.75;;;;;24.80;46.75;101436.44;5017980;28;45487;-64
2023/06/28 10:58:41;;;;;;;;;17.50;13.75;;;;;24.83;45.92;101430.72;5016783;28;45500;-63
2023/06/28 11:01:08;;;;;;;;;16.25;12.50;;;;;24.67;46.43;101407.38;5019291;28;45542;-63
2023/06/28 11:03:41;;;;;;;;;14.00;13.00;;;;;24.83;47.17;101422.53;5019275;28;45627;-63
2023/06/28 11:06:09;;;;;;;;;14.75;13.25;;;;;24.83;46.48;101414.34;5034298;28;45403;-63
2023/06/28 11:08:45;;;;;;;;;15.00;14.00;;;;;24.97;45.91;101427.72;5026256;28;45283;-63
2023/06/28 11:11:34;;;;;;;;;12.50;11.00;;;;;24.91;46.32;101420.91;5025503;28;45418;-63
2023/06/28 11:14:22;;;;;;;;;15.50;14.50;;;;;24.98;46.64;101421.25;5030244;28;45463;-63
2023/06/28 11:16:49;;;;;;;;;17.00;16.25;;;;;25.06;46.75;101417.88;5029661;28;45555;-64
2023/06/28 11:19:16;;;;;;;;;16.75;15.00;;;;;25.11;46.22;101419.25;5033080;28;45381;-60